Airfield :
LOGIN :

Register | Disclaimer

   EN    FR    IT 

 










Legend :    VFR   Marginal VFR   IFR   Intensive IFR   Very Intensive IFR
Visi :
Ceiling :
>= 8 km
>= 3000ft
5 to 8 km
1000 to 3000 ft
1500m to 5 km
500 to 1000 ft
800 to 1500m
200 to 500 ft
< 800m
< 200 ft
Symbols :   Thunderstorms  Fog  Heavy snow  Heavy precipitations  Wind > 20 kt
SIGMETs :     Misc.  Thunderstorms  Icing  Turbulence  Mountain Waves  Volcanic Ashes






- Airport Elevation : 466 ft


LHPA - Pápa

CURRENT METAR :
  • 291015Z 34004KT 9999 FEW020 BKN047 BKN083 14/09 Q1004 NOSIG RMK BLU

EXPIRED METARs :
  • 290945Z 02002KT 9999 FEW020 BKN047 BKN083 13/08 Q1004 NOSIG RMK BLU
  • 290915Z 31002KT 9999 SCT017 BKN047 13/08 Q1004 NOSIG RMK BLU
  • 290845Z 33004KT 9999 SCT017 SCT047 BKN083 13/09 Q1004 NOSIG RMK BLU
  • 290815Z 02004KT 9999 FEW017 SCT050 BKN083 13/09 Q1003 NOSIG RMK BLU
  • 290745Z 01006KT 330V030 9999 FEW013 BKN040 BKN083 12/09 Q1003 NOSIG RMK BLU

TAF TAF LHPA
Valid from the 29 at 06:00 until the 30 at 06:00 UTC


290515Z 2906/3006 35006KT 9999 SCT010 BKN025 OVC080
PROB40
TEMPO 2906/2908 3000 RA BR BKN010 BKN020 OVC040
BECMG 2908/2910 02006KT 9999 SCT025 BKN060
PROB30
TEMPO 2910/2918 8000 RA SHRA BKN020TCU BKN060
BECMG 2915/2918 VRB03KT
TEMPO 2918/3006 VRB14G26KT 5000 SHRA TSRA SCT010 SCT020CB BKN030TCU OVC060
PROB40
TEMPO 3000/3004 1500 +SHRA TSRA BKN010 BKN020CB



MET'MAP, your aeronautical weather chart ! - Copyright ORBIFLY December 2007 - Disclaimer

ORBIFLY MET'MAP TEAM :

Programming & Development : Alexandra Zaïnal
Original concept : Baudouin d'Aumeries
Technical & hardware support : Manuel Goepfert
Assistance : Marc-Olivier Méhu




SOURCES & CREDITS :

   NOAA